createdAt,value
2018-09-03T00:01:16.188Z,66.47
2018-09-03T00:03:57.363Z,65.23
2018-09-03T00:06:38.622Z,58.33
2018-09-03T00:09:19.225Z,70.83
2018-09-03T00:11:59.610Z,63.30
2018-09-03T00:14:40.520Z,64.03
2018-09-03T00:17:21.704Z,60.37
2018-09-03T00:20:02.308Z,63.83
2018-09-03T00:22:43.465Z,62.23
2018-09-03T00:25:24.401Z,62.13
2018-09-03T00:28:05.583Z,58.00
2018-09-03T00:30:46.441Z,71.97
2018-09-03T00:33:32.805Z,66.40
2018-09-03T00:36:19.039Z,55.57
2018-09-03T00:39:04.812Z,65.97
2018-09-03T00:43:56.486Z,71.03
2018-09-03T00:46:42.556Z,70.90
2018-09-03T00:49:23.429Z,61.33
2018-09-03T00:52:04.202Z,68.57
2018-09-03T00:54:45.245Z,69.80
2018-09-03T00:57:26.187Z,69.60
2018-09-03T01:00:07.857Z,72.07
2018-09-03T01:02:48.721Z,64.20
2018-09-03T01:05:30.111Z,69.50
2018-09-03T01:08:10.960Z,63.27
2018-09-03T01:10:51.860Z,75.90
2018-09-03T01:13:32.278Z,65.00
2018-09-03T01:16:13.038Z,62.33
2018-09-03T01:18:56.208Z,72.73
2018-09-03T01:21:36.974Z,69.17
2018-09-03T01:24:17.725Z,70.03
2018-09-03T01:26:58.233Z,66.60
2018-09-03T01:29:38.843Z,66.27
2018-09-03T01:32:19.501Z,67.00
2018-09-03T01:35:00.456Z,68.50
2018-09-03T01:37:41.244Z,70.07
2018-09-03T01:40:22.276Z,63.93
2018-09-03T01:43:03.180Z,64.50
2018-09-03T01:45:44.361Z,63.87
2018-09-03T01:48:24.861Z,63.73
2018-09-03T01:51:05.430Z,62.80
2018-09-03T01:53:46.204Z,63.77
2018-09-03T01:56:26.693Z,71.77
2018-09-03T01:59:07.066Z,68.83
2018-09-03T02:01:47.479Z,68.50
2018-09-03T02:04:28.102Z,68.67
2018-09-03T02:07:09.152Z,72.13
2018-09-03T02:09:49.728Z,66.43
2018-09-03T02:12:30.283Z,71.50
2018-09-03T02:15:12.101Z,68.53
2018-09-03T02:17:53.006Z,75.17
2018-09-03T02:20:33.892Z,70.93
2018-09-03T02:23:14.759Z,70.53
2018-09-03T02:25:55.596Z,63.97
2018-09-03T02:28:36.358Z,78.97
2018-09-03T02:31:17.267Z,80.30
2018-09-03T02:33:58.399Z,77.30
2018-09-03T02:36:39.296Z,80.27
2018-09-03T02:39:19.747Z,80.83
2018-09-03T02:42:00.787Z,79.00
2018-09-03T02:44:41.580Z,78.47
2018-09-03T02:47:22.698Z,72.70
2018-09-03T02:50:03.650Z,81.30
2018-09-03T02:52:44.297Z,89.97
2018-09-03T02:55:24.812Z,74.50
2018-09-03T02:58:05.620Z,75.33
2018-09-03T03:00:46.085Z,78.17
2018-09-03T03:03:27.168Z,79.77
2018-09-03T03:06:07.616Z,79.13
2018-09-03T03:08:49.323Z,77.60
2018-09-03T03:11:30.148Z,75.53
2018-09-03T03:14:11.200Z,75.57
2018-09-03T03:16:51.631Z,72.80
2018-09-03T03:19:32.431Z,78.83
2018-09-03T03:22:13.228Z,77.53
2018-09-03T03:24:54.248Z,78.20
2018-09-03T03:27:34.638Z,83.07
2018-09-03T03:30:15.520Z,78.80
2018-09-03T03:32:57.281Z,81.57
2018-09-03T03:35:38.520Z,82.37
2018-09-03T03:38:19.261Z,79.60
2018-09-03T03:41:00.039Z,85.97
2018-09-03T03:43:41.179Z,80.60
2018-09-03T03:46:21.902Z,90.60
2018-09-03T03:49:02.466Z,78.97
2018-09-03T03:51:42.930Z,76.57
2018-09-03T03:54:24.069Z,76.80
2018-09-03T03:57:05.286Z,76.57
2018-09-03T03:59:46.191Z,79.07
2018-09-03T04:02:26.888Z,83.83
2018-09-03T04:05:08.140Z,78.50
2018-09-03T04:07:48.649Z,86.03
2018-09-03T04:10:29.441Z,90.60
2018-09-03T04:13:10.176Z,78.43
2018-09-03T04:15:51.268Z,84.53
2018-09-03T04:18:32.345Z,83.50
2018-09-03T04:21:12.848Z,84.17
2018-09-03T04:23:53.731Z,80.97
2018-09-03T04:26:34.790Z,86.43
2018-09-03T04:29:15.197Z,79.50
2018-09-03T04:31:55.921Z,76.90
2018-09-03T04:34:36.855Z,74.27
2018-09-03T04:37:17.669Z,80.60
2018-09-03T04:39:58.484Z,84.90
2018-09-03T04:42:38.971Z,96.80
2018-09-03T04:45:20.082Z,94.57
2018-09-03T04:48:01.248Z,94.33
2018-09-03T04:50:42.889Z,104.33
2018-09-03T04:53:23.796Z,108.73
2018-09-03T04:56:04.825Z,99.20
2018-09-03T04:58:45.362Z,102.70
2018-09-03T05:01:26.610Z,107.67
2018-09-03T05:04:07.222Z,97.47
2018-09-03T05:06:47.842Z,100.10
2018-09-03T05:09:29.734Z,104.70
2018-09-03T05:12:10.620Z,103.63
2018-09-03T05:14:51.742Z,110.67
2018-09-03T05:17:33.089Z,113.47
2018-09-03T05:20:13.819Z,105.77
2018-09-03T05:22:54.735Z,106.10
2018-09-03T05:25:35.593Z,103.50
2018-09-03T05:28:16.162Z,104.90
2018-09-03T05:30:57.100Z,94.17
2018-09-03T05:33:38.006Z,108.03
2018-09-03T05:36:18.393Z,109.33
2018-09-03T05:38:59.232Z,103.73
2018-09-03T05:41:39.948Z,109.90
2018-09-03T05:44:20.557Z,113.43
2018-09-03T05:47:01.186Z,110.93
2018-09-03T05:49:42.075Z,103.10
2018-09-03T05:52:24.545Z,115.40
2018-09-03T05:55:05.489Z,107.40
2018-09-03T05:57:46.342Z,107.90
2018-09-03T06:00:27.318Z,108.83
2018-09-03T06:03:08.425Z,118.40
2018-09-03T06:05:48.853Z,123.13
2018-09-03T06:08:30.506Z,123.60
2018-09-03T06:11:11.106Z,93.13
2018-09-03T06:13:52.045Z,103.77
2018-09-03T06:16:33.774Z,95.93
2018-09-03T06:19:14.757Z,100.97
2018-09-03T06:21:55.437Z,110.83
2018-09-03T06:24:36.791Z,95.87
2018-09-03T06:27:17.153Z,98.63
2018-09-03T06:29:58.130Z,97.77
2018-09-03T06:32:38.967Z,99.97
2018-09-03T06:35:19.749Z,95.17
2018-09-03T06:38:00.920Z,107.90
2018-09-03T06:40:42.018Z,105.63
2018-09-03T06:43:22.905Z,112.70
2018-09-03T06:46:03.469Z,94.27
2018-09-03T06:48:44.371Z,102.03
2018-09-03T06:51:25.160Z,90.20
2018-09-03T06:54:05.928Z,104.40
2018-09-03T06:56:47.149Z,92.83
2018-09-03T06:59:27.565Z,94.57
2018-09-03T07:02:09.335Z,88.87
2018-09-03T07:04:50.087Z,107.53
2018-09-03T07:07:31.202Z,93.57
2018-09-03T07:10:11.839Z,88.23
2018-09-03T07:12:52.600Z,84.47
2018-09-03T07:15:33.449Z,76.27
2018-09-03T07:18:13.885Z,75.57
2018-09-03T07:20:54.221Z,80.53
2018-09-03T07:23:35.673Z,79.97
2018-09-03T07:26:17.727Z,84.93
2018-09-03T07:28:59.124Z,71.67
2018-09-03T07:31:39.882Z,63.60
2018-09-03T07:34:20.591Z,61.67
2018-09-03T07:37:01.112Z,58.80
2018-09-03T07:39:42.023Z,56.53
2018-09-03T07:42:23.151Z,51.20
2018-09-03T07:45:04.560Z,58.53
2018-09-03T07:47:45.258Z,55.43
2018-09-03T07:50:25.675Z,53.23
2018-09-03T07:53:07.290Z,48.57
2018-09-03T07:55:48.682Z,58.67
2018-09-03T07:58:29.420Z,50.07
2018-09-03T08:01:10.404Z,48.30
2018-09-03T08:03:51.877Z,45.03
2018-09-03T08:06:32.871Z,46.47
2018-09-03T08:09:13.280Z,46.60
2018-09-03T08:11:54.072Z,46.07
2018-09-03T08:14:34.974Z,44.57
2018-09-03T08:17:15.896Z,38.57
2018-09-03T08:19:56.525Z,42.13
2018-09-03T08:22:37.317Z,39.03
2018-09-03T08:25:18.159Z,41.33
2018-09-03T08:27:59.320Z,41.03
2018-09-03T08:30:40.580Z,35.23
2018-09-03T08:33:21.013Z,36.90
2018-09-03T08:36:01.869Z,33.50
2018-09-03T08:38:42.821Z,32.53
2018-09-03T08:41:23.577Z,33.77
2018-09-03T08:44:04.326Z,31.50
2018-09-03T08:46:45.580Z,32.50
2018-09-03T08:49:26.795Z,32.77
2018-09-03T08:52:07.923Z,30.93
2018-09-03T08:54:48.413Z,30.77
2018-09-03T08:57:28.904Z,27.67
2018-09-03T09:00:10.104Z,31.13
2018-09-03T09:02:51.098Z,32.90
2018-09-03T09:05:32.225Z,34.13
2018-09-03T09:08:13.290Z,33.43
2018-09-03T09:10:53.862Z,30.77
2018-09-03T09:13:34.560Z,28.70
2018-09-03T09:16:16.432Z,30.30
2018-09-03T09:18:57.301Z,26.57
2018-09-03T09:21:38.402Z,27.70
2018-09-03T09:24:19.310Z,27.17
2018-09-03T09:27:00.347Z,24.13
2018-09-03T09:29:41.249Z,25.17
2018-09-03T09:32:21.948Z,26.20
2018-09-03T09:35:02.357Z,24.77
2018-09-03T09:37:42.841Z,26.50
2018-09-03T09:40:23.575Z,25.40
2018-09-03T09:43:05.057Z,25.87
2018-09-03T09:45:46.159Z,23.97
2018-09-03T09:48:27.013Z,20.53
2018-09-03T09:51:07.987Z,19.87
2018-09-03T09:53:48.444Z,18.37
2018-09-03T09:56:28.837Z,17.77
2018-09-03T09:59:09.252Z,21.33
2018-09-03T10:01:50.341Z,18.23
2018-09-03T10:04:30.823Z,13.83
2018-09-03T10:07:11.336Z,14.10
2018-09-03T10:09:52.089Z,13.97
2018-09-03T10:12:33.456Z,15.77
2018-09-03T10:15:14.320Z,19.27
2018-09-03T10:17:55.252Z,17.27
2018-09-03T10:20:37.079Z,19.87
2018-09-03T10:23:17.996Z,18.83
2018-09-03T10:25:58.656Z,16.90
2018-09-03T10:28:39.732Z,20.00
2018-09-03T10:31:20.732Z,22.70
2018-09-03T10:34:01.585Z,19.67
2018-09-03T10:36:42.181Z,19.50
2018-09-03T10:39:22.939Z,17.93
2018-09-03T10:42:03.840Z,18.33
2018-09-03T10:44:44.391Z,19.20
2018-09-03T10:47:25.025Z,22.70
2018-09-03T10:50:05.727Z,21.00
2018-09-03T10:52:46.522Z,21.00
2018-09-03T10:55:26.940Z,21.30
2018-09-03T10:58:07.961Z,20.13
2018-09-03T11:00:49.283Z,23.53
2018-09-03T11:03:30.296Z,24.83
2018-09-03T11:06:11.127Z,20.53
2018-09-03T11:08:52.031Z,22.33
2018-09-03T11:11:32.946Z,19.87
2018-09-03T11:14:13.642Z,20.57
2018-09-03T11:16:54.652Z,22.37
2018-09-03T11:19:40.266Z,22.17
2018-09-03T11:22:21.186Z,24.57
2018-09-03T11:25:01.860Z,26.00
2018-09-03T11:27:42.345Z,25.47
2018-09-03T11:30:23.573Z,27.33
2018-09-03T11:33:04.069Z,27.43
2018-09-03T11:35:44.615Z,22.90
2018-09-03T11:38:26.000Z,22.97
2018-09-03T11:41:06.553Z,24.30
2018-09-03T11:43:47.460Z,23.90
2018-09-03T11:46:28.115Z,25.67
2018-09-03T11:49:08.844Z,22.60
2018-09-03T11:51:49.261Z,21.47
2018-09-03T11:54:30.038Z,23.57
2018-09-03T11:57:11.468Z,23.80
2018-09-03T11:59:52.287Z,23.63
2018-09-03T12:02:32.630Z,23.03
2018-09-03T12:05:13.180Z,26.27
2018-09-03T12:07:53.772Z,21.70
2018-09-03T12:10:34.269Z,22.33
2018-09-03T12:13:14.833Z,24.30
2018-09-03T12:16:11.505Z,24.03
2018-09-03T12:18:52.994Z,24.00
2018-09-03T12:21:36.016Z,24.47
2018-09-03T12:24:16.451Z,25.43
2018-09-03T12:26:57.412Z,24.67
2018-09-03T12:29:38.697Z,24.07
2018-09-03T12:32:19.188Z,23.40
2018-09-03T12:35:00.033Z,26.47
2018-09-03T12:37:40.546Z,24.37
2018-09-03T12:40:21.658Z,25.13
2018-09-03T12:43:02.369Z,24.63
2018-09-03T12:45:48.240Z,29.03
2018-09-03T12:48:29.769Z,27.47
2018-09-03T12:51:10.373Z,26.03
2018-09-03T12:53:51.143Z,26.10
2018-09-03T12:56:32.090Z,27.13
2018-09-03T12:59:13.029Z,26.07
2018-09-03T13:01:53.581Z,28.47
2018-09-03T13:04:34.885Z,23.63
2018-09-03T13:07:15.850Z,26.03
2018-09-03T13:09:56.809Z,22.97
2018-09-03T13:12:37.627Z,23.43
2018-09-03T13:15:18.560Z,26.93
2018-09-03T13:17:59.468Z,23.87
2018-09-03T13:20:40.336Z,23.27
2018-09-03T13:23:21.417Z,20.53
2018-09-03T13:26:03.001Z,26.37
2018-09-03T13:28:43.789Z,23.03
2018-09-03T13:31:25.349Z,23.33
2018-09-03T13:34:06.772Z,20.63
2018-09-03T13:36:47.157Z,22.10
2018-09-03T13:39:28.268Z,21.20
2018-09-03T13:42:09.239Z,18.80
2018-09-03T13:44:50.157Z,20.47
2018-09-03T13:47:30.652Z,22.80
2018-09-03T13:50:11.804Z,18.50
2018-09-03T13:52:52.332Z,19.93
2018-09-03T13:55:32.975Z,20.73
2018-09-03T13:58:13.815Z,19.80
2018-09-03T14:00:54.192Z,20.67
2018-09-03T14:03:34.760Z,20.70
2018-09-03T14:06:15.536Z,20.57
2018-09-03T14:08:56.078Z,19.87
2018-09-03T14:11:36.887Z,22.00
2018-09-03T14:14:17.699Z,19.77
2018-09-03T14:16:58.756Z,21.67
2018-09-03T14:19:39.578Z,21.63
2018-09-03T14:22:20.667Z,18.50
2018-09-03T14:25:01.318Z,19.77
2018-09-03T14:27:42.316Z,19.10
2018-09-03T14:30:24.412Z,19.90
2018-09-03T14:33:04.951Z,22.77
2018-09-03T14:35:45.907Z,21.27
2018-09-03T14:38:27.041Z,22.20
2018-09-03T14:41:07.852Z,20.93
2018-09-03T14:43:48.636Z,19.67
2018-09-03T14:46:29.984Z,19.77
2018-09-03T14:49:10.759Z,21.10
2018-09-03T14:51:51.761Z,17.97
2018-09-03T14:54:32.196Z,18.37
2018-09-03T14:57:12.592Z,15.83
2018-09-03T14:59:53.456Z,14.60
2018-09-03T15:02:34.120Z,14.43
2018-09-03T15:05:14.893Z,15.20
2018-09-03T15:07:55.584Z,16.33
2018-09-03T15:10:36.566Z,15.50
2018-09-03T15:13:17.185Z,14.83
2018-09-03T15:15:58.065Z,16.30
2018-09-03T15:18:38.565Z,19.07
2018-09-03T15:21:19.779Z,17.10
2018-09-03T15:24:00.673Z,15.87
2018-09-03T15:26:41.728Z,16.93
2018-09-03T15:29:22.429Z,18.30
2018-09-03T15:32:03.275Z,17.10
2018-09-03T15:34:44.052Z,17.50
2018-09-03T15:37:25.192Z,19.07
2018-09-03T15:40:06.104Z,15.57
2018-09-03T15:42:47.619Z,17.47
2018-09-03T15:45:28.472Z,17.37
2018-09-03T15:48:09.232Z,18.40
2018-09-03T15:50:50.574Z,14.93
2018-09-03T15:53:31.610Z,17.83
2018-09-03T15:56:12.509Z,17.83
2018-09-03T15:58:53.473Z,17.93
2018-09-03T16:01:34.270Z,16.33
2018-09-03T16:04:14.877Z,15.00
2018-09-03T16:06:56.096Z,16.10
2018-09-03T16:09:36.656Z,18.47
2018-09-03T16:12:17.576Z,18.50
2018-09-03T16:14:58.811Z,13.93
2018-09-03T16:17:39.376Z,16.97
2018-09-03T16:20:20.312Z,18.87
2018-09-03T16:23:00.793Z,17.03
2018-09-03T16:25:42.064Z,17.00
2018-09-03T16:28:23.048Z,15.13
2018-09-03T16:31:03.742Z,16.60
2018-09-03T16:33:44.644Z,14.30
2018-09-03T16:36:25.666Z,16.63
2018-09-03T16:39:07.332Z,14.87
2018-09-03T16:41:48.134Z,16.30
2018-09-03T16:44:29.113Z,18.57
2018-09-03T16:47:10.209Z,19.17
2018-09-03T16:49:51.121Z,17.00
2018-09-03T16:52:31.533Z,19.47
2018-09-03T16:55:13.126Z,19.00
2018-09-03T16:57:54.237Z,18.10
2018-09-03T17:00:35.612Z,20.00
2018-09-03T17:03:16.186Z,16.60
2018-09-03T17:05:56.685Z,18.40
2018-09-03T17:08:37.141Z,25.33
2018-09-03T17:11:17.886Z,16.50
2018-09-03T17:13:59.068Z,20.77
2018-09-03T17:16:39.965Z,20.30
2018-09-03T17:19:20.821Z,20.97
2018-09-03T17:22:01.527Z,19.33
2018-09-03T17:24:42.808Z,20.23
2018-09-03T17:27:23.622Z,20.10
2018-09-03T17:30:04.411Z,19.40
2018-09-03T17:32:46.046Z,18.43
2018-09-03T17:35:27.950Z,19.43
2018-09-03T17:38:09.300Z,19.60
2018-09-03T17:40:50.244Z,19.70
2018-09-03T17:43:31.021Z,21.30
2018-09-03T17:46:11.852Z,22.73
2018-09-03T17:48:52.690Z,20.70
2018-09-03T17:51:33.567Z,18.67
2018-09-03T17:54:14.126Z,23.57
2018-09-03T17:56:55.120Z,22.13
2018-09-03T17:59:35.716Z,21.20
2018-09-03T18:02:17.397Z,23.03
2018-09-03T18:04:58.605Z,22.17
2018-09-03T18:07:39.592Z,30.30
2018-09-03T18:10:20.652Z,21.70
2018-09-03T18:13:01.164Z,24.87
2018-09-03T18:15:42.176Z,24.27
2018-09-03T18:18:23.042Z,24.00
2018-09-03T18:21:03.432Z,21.73
2018-09-03T18:23:43.894Z,23.07
2018-09-03T18:26:25.022Z,23.03
2018-09-03T18:29:05.869Z,22.00
2018-09-03T18:31:47.334Z,25.03
2018-09-03T18:34:28.245Z,23.27
2018-09-03T18:37:09.052Z,22.97
2018-09-03T18:39:49.934Z,21.97
2018-09-03T18:42:30.978Z,24.93
2018-09-03T18:45:11.572Z,24.23
2018-09-03T18:47:52.645Z,26.23
2018-09-03T18:50:33.522Z,21.40
2018-09-03T18:53:14.223Z,21.97
2018-09-03T18:55:55.094Z,24.23
2018-09-03T18:58:36.236Z,21.43
2018-09-03T19:01:16.998Z,26.73
2018-09-03T19:03:58.180Z,23.10
2018-09-03T19:06:38.999Z,23.13
2018-09-03T19:09:19.508Z,23.07
2018-09-03T19:12:00.861Z,22.37
2018-09-03T19:14:41.892Z,28.60
2018-09-03T19:17:22.778Z,23.77
2018-09-03T19:20:04.349Z,24.27
2018-09-03T19:22:45.654Z,25.73
2018-09-03T19:25:26.906Z,26.27
2018-09-03T19:28:09.645Z,27.10
2018-09-03T19:30:50.994Z,23.30
2018-09-03T19:33:31.511Z,24.87
2018-09-03T19:36:12.372Z,24.57
2018-09-03T19:38:53.032Z,24.87
2018-09-03T19:41:33.906Z,26.30
2018-09-03T19:44:14.795Z,24.37
2018-09-03T19:46:55.231Z,25.77
2018-09-03T19:49:35.788Z,27.97
2018-09-03T19:52:16.989Z,25.37
2018-09-03T19:54:57.384Z,23.27
2018-09-03T19:57:38.129Z,22.93
2018-09-03T20:00:18.502Z,24.63
2018-09-03T20:02:59.097Z,24.23
2018-09-03T20:05:40.448Z,25.00
2018-09-03T20:08:20.981Z,22.93
2018-09-03T20:11:01.749Z,23.37
2018-09-03T20:13:43.593Z,25.23
2018-09-03T20:16:24.228Z,25.67
2018-09-03T20:19:04.662Z,27.33
2018-09-03T20:21:45.572Z,24.87
2018-09-03T20:24:26.386Z,27.80
2018-09-03T20:27:07.225Z,27.97
2018-09-03T20:29:48.882Z,27.33
2018-09-03T20:32:29.509Z,28.07
2018-09-03T20:35:10.380Z,25.97
2018-09-03T20:37:51.721Z,25.00
2018-09-03T20:40:32.334Z,24.87
2018-09-03T20:43:13.287Z,26.27
2018-09-03T20:45:54.172Z,25.00
2018-09-03T20:48:34.719Z,26.33
2018-09-03T20:51:15.708Z,25.43
2018-09-03T20:53:56.616Z,26.80
2018-09-03T20:56:37.145Z,26.00
2018-09-03T20:59:17.830Z,27.17
2018-09-03T21:01:59.207Z,27.27
2018-09-03T21:04:40.035Z,27.30
2018-09-03T21:07:20.939Z,25.67
2018-09-03T21:10:01.951Z,26.63
2018-09-03T21:12:42.513Z,28.63
2018-09-03T21:15:23.523Z,23.30
2018-09-03T21:18:04.466Z,24.87
2018-09-03T21:20:45.726Z,26.07
2018-09-03T21:23:26.584Z,26.67
2018-09-03T21:26:07.864Z,26.33
2018-09-03T21:28:49.879Z,25.03
2018-09-03T21:31:30.468Z,26.73
2018-09-03T21:34:11.459Z,25.30
2018-09-03T21:36:52.632Z,23.27
2018-09-03T21:39:33.366Z,23.27
2018-09-03T21:42:13.956Z,25.07
2018-09-03T21:44:54.724Z,28.57
2018-09-03T21:47:35.474Z,27.83
2018-09-03T21:50:16.369Z,29.37
2018-09-03T21:52:58.101Z,27.57
2018-09-03T21:55:39.281Z,27.33
2018-09-03T21:58:20.124Z,27.83
2018-09-03T22:01:01.156Z,25.70
2018-09-03T22:03:42.231Z,31.37
2018-09-03T22:06:23.261Z,27.80
2018-09-03T22:09:04.748Z,32.87
2018-09-03T22:11:45.130Z,28.33
2018-09-03T22:14:26.171Z,29.27
2018-09-03T22:17:07.484Z,29.47
2018-09-03T22:19:48.136Z,28.60
2018-09-03T22:22:28.841Z,28.30
2018-09-03T22:25:09.367Z,31.50
2018-09-03T22:27:50.265Z,30.77
2018-09-03T22:30:31.003Z,29.93
2018-09-03T22:33:11.376Z,30.67
2018-09-03T22:35:52.553Z,27.43
2018-09-03T22:38:33.688Z,35.67
2018-09-03T22:41:14.653Z,31.97
2018-09-03T22:43:55.068Z,32.07
2018-09-03T22:46:35.963Z,32.83
2018-09-03T22:49:16.472Z,32.33
2018-09-03T22:51:57.484Z,34.20
2018-09-03T22:54:38.007Z,37.67
2018-09-03T22:57:18.713Z,33.57
2018-09-03T22:59:59.701Z,34.30
2018-09-03T23:02:42.548Z,33.50
2018-09-03T23:05:23.008Z,30.50
2018-09-03T23:08:03.612Z,31.37
2018-09-03T23:10:44.408Z,34.53
2018-09-03T23:13:25.484Z,32.37
2018-09-03T23:16:06.340Z,29.97
2018-09-03T23:18:47.532Z,30.47
2018-09-03T23:21:28.376Z,33.97
2018-09-03T23:24:09.326Z,30.43
2018-09-03T23:26:50.076Z,30.27
2018-09-03T23:29:31.117Z,31.77
2018-09-03T23:32:12.223Z,27.47
2018-09-03T23:34:53.065Z,33.83
2018-09-03T23:37:33.461Z,31.97
2018-09-03T23:40:14.314Z,34.03
2018-09-03T23:42:55.396Z,29.70
2018-09-03T23:45:35.962Z,30.90
2018-09-03T23:48:16.824Z,31.77
2018-09-03T23:50:57.709Z,30.23
2018-09-03T23:53:39.264Z,28.60
2018-09-03T23:56:20.556Z,23.83
2018-09-03T23:59:01.574Z,26.70
